createdAt,value
2019-04-27T00:02:18.137Z,72.50
2019-04-27T00:05:06.351Z,72.50
2019-04-27T00:07:47.395Z,72.30
2019-04-27T00:10:36.895Z,72.30
2019-04-27T00:13:08.281Z,72.30
2019-04-27T00:16:13.481Z,72.20
2019-04-27T00:19:01.683Z,72.20
2019-04-27T00:21:58.397Z,72.20
2019-04-27T00:24:29.276Z,72.20
2019-04-27T00:27:00.484Z,72.20
2019-04-27T00:29:33.079Z,72.20
2019-04-27T00:32:04.357Z,72.20
2019-04-27T00:34:35.677Z,73.10
2019-04-27T00:37:28.640Z,72.30
2019-04-27T00:40:21.552Z,72.20
2019-04-27T00:42:54.159Z,72.30
2019-04-27T00:45:26.849Z,72.40
2019-04-27T00:47:59.854Z,72.50
2019-04-27T00:50:30.464Z,72.60
2019-04-27T00:53:03.258Z,72.70
2019-04-27T00:55:35.556Z,72.70
2019-04-27T00:58:17.167Z,72.80
2019-04-27T01:01:04.121Z,72.70
2019-04-27T01:03:44.630Z,72.80
2019-04-27T01:06:15.613Z,72.80
2019-04-27T01:08:46.489Z,72.90
2019-04-27T01:11:17.398Z,72.90
2019-04-27T01:13:48.308Z,72.90
2019-04-27T01:16:22.001Z,73.00
2019-04-27T01:18:51.679Z,73.20
2019-04-27T01:21:22.515Z,73.20
2019-04-27T01:23:53.463Z,73.30
2019-04-27T01:26:33.622Z,73.30
2019-04-27T01:29:08.212Z,73.40
2019-04-27T01:31:39.602Z,73.40
2019-04-27T01:34:10.892Z,73.40
2019-04-27T01:36:41.836Z,73.40
2019-04-27T01:39:14.666Z,73.40
2019-04-27T01:41:45.568Z,73.40
2019-04-27T01:44:16.431Z,73.30
2019-04-27T01:46:48.702Z,73.30
2019-04-27T01:49:19.908Z,73.40
2019-04-27T01:51:51.756Z,73.40
2019-04-27T01:54:24.271Z,73.40
2019-04-27T01:56:55.274Z,73.50
2019-04-27T01:59:26.108Z,73.50
2019-04-27T02:02:14.625Z,73.60
2019-04-27T02:05:03.043Z,73.60
2019-04-27T02:07:34.504Z,73.60
2019-04-27T02:10:06.900Z,73.70
2019-04-27T02:12:39.687Z,73.80
2019-04-27T02:15:10.696Z,73.90
2019-04-27T02:17:41.672Z,74.00
2019-04-27T02:20:12.911Z,74.00
2019-04-27T02:22:43.799Z,73.90
2019-04-27T02:25:14.887Z,74.10
2019-04-27T02:27:49.108Z,74.00
2019-04-27T02:30:42.999Z,74.20
2019-04-27T02:33:40.194Z,74.30
2019-04-27T02:36:14.963Z,74.30
2019-04-27T02:38:43.924Z,74.30
2019-04-27T02:41:14.831Z,74.40
2019-04-27T02:44:03.060Z,74.40
2019-04-27T02:46:33.894Z,74.50
2019-04-27T02:49:07.154Z,74.50
2019-04-27T02:51:49.678Z,74.60
2019-04-27T02:54:20.614Z,74.70
2019-04-27T02:56:52.689Z,74.70
2019-04-27T02:59:23.978Z,74.90
2019-04-27T03:02:03.631Z,75.00
2019-04-27T03:04:34.768Z,75.20
2019-04-27T03:07:05.994Z,75.30
2019-04-27T03:09:39.432Z,75.40
2019-04-27T03:12:10.259Z,75.50
2019-04-27T03:14:54.834Z,75.60
2019-04-27T03:17:49.410Z,75.70
2019-04-27T03:20:40.270Z,75.60
2019-04-27T03:23:11.801Z,75.40
2019-04-27T03:26:01.961Z,75.40
2019-04-27T03:28:32.853Z,75.40
2019-04-27T03:31:03.718Z,75.30
2019-04-27T03:33:35.096Z,75.30
2019-04-27T03:36:07.261Z,75.30
2019-04-27T03:38:39.719Z,75.30
2019-04-27T03:41:10.873Z,75.30
2019-04-27T03:43:41.820Z,75.30
2019-04-27T03:46:12.668Z,75.40
2019-04-27T03:48:43.566Z,75.40
2019-04-27T03:51:26.173Z,75.50
2019-04-27T03:54:05.060Z,75.50
2019-04-27T03:56:50.475Z,75.60
2019-04-27T03:59:29.925Z,75.60
2019-04-27T04:02:02.489Z,75.60
2019-04-27T04:04:33.452Z,75.60
2019-04-27T04:07:14.409Z,75.60
2019-04-27T04:09:45.243Z,75.70
2019-04-27T04:12:30.867Z,75.70
2019-04-27T04:15:01.758Z,75.80
2019-04-27T04:17:33.239Z,75.80
2019-04-27T04:20:04.163Z,76.50
2019-04-27T04:22:35.032Z,76.40
2019-04-27T04:25:05.958Z,75.50
2019-04-27T04:27:36.878Z,75.60
2019-04-27T04:30:09.783Z,75.60
2019-04-27T04:32:40.520Z,75.50
2019-04-27T04:35:21.932Z,75.40
2019-04-27T04:37:53.445Z,75.40
2019-04-27T04:40:35.714Z,75.20
2019-04-27T04:43:14.984Z,75.20
2019-04-27T04:46:01.068Z,75.10
2019-04-27T04:48:31.918Z,75.10
2019-04-27T04:51:02.826Z,75.00
2019-04-27T04:53:33.997Z,75.10
2019-04-27T04:56:05.876Z,75.00
2019-04-27T04:58:36.737Z,74.90
2019-04-27T05:01:09.718Z,75.00
2019-04-27T05:03:40.193Z,74.80
2019-04-27T05:06:11.050Z,74.80
2019-04-27T05:08:41.928Z,74.80
2019-04-27T05:11:13.637Z,74.80
2019-04-27T05:13:45.480Z,74.60
2019-04-27T05:16:16.351Z,74.40
2019-04-27T05:18:47.179Z,74.50
2019-04-27T05:21:36.297Z,74.70
2019-04-27T05:24:09.215Z,74.70
2019-04-27T05:26:39.859Z,74.60
2019-04-27T05:29:10.708Z,74.50
2019-04-27T05:31:41.604Z,74.60
2019-04-27T05:34:12.467Z,74.50
2019-04-27T05:36:48.806Z,74.40
2019-04-27T05:39:19.498Z,74.50
2019-04-27T05:41:49.795Z,74.60
2019-04-27T05:44:39.683Z,74.60
2019-04-27T05:47:23.610Z,74.50
2019-04-27T05:50:01.080Z,74.30
2019-04-27T05:52:32.029Z,74.30
2019-04-27T05:55:02.882Z,74.20
2019-04-27T05:57:33.824Z,74.30
2019-04-27T06:00:06.103Z,74.10
2019-04-27T06:02:37.031Z,73.90
2019-04-27T06:05:08.821Z,73.90
2019-04-27T06:07:39.727Z,74.00
2019-04-27T06:10:10.704Z,73.70
2019-04-27T06:12:41.508Z,73.60
2019-04-27T06:15:12.720Z,73.50
2019-04-27T06:17:43.561Z,73.60
2019-04-27T06:20:16.018Z,73.50
2019-04-27T06:22:48.764Z,73.50
2019-04-27T06:25:21.626Z,73.60
2019-04-27T06:27:51.976Z,73.40
2019-04-27T06:30:22.794Z,73.30
2019-04-27T06:32:53.676Z,73.00
2019-04-27T06:35:24.440Z,72.90
2019-04-27T06:37:56.250Z,72.90
2019-04-27T06:40:28.951Z,72.80
2019-04-27T06:42:59.688Z,72.90
2019-04-27T06:45:30.610Z,72.90
2019-04-27T06:48:01.514Z,72.80
2019-04-27T06:50:32.387Z,72.90
2019-04-27T06:53:03.269Z,72.90
2019-04-27T06:55:34.077Z,73.00
2019-04-27T06:58:04.955Z,73.10
2019-04-27T07:00:35.926Z,73.00
2019-04-27T07:03:06.789Z,73.00
2019-04-27T07:05:38.797Z,73.00
2019-04-27T07:08:09.800Z,73.20
2019-04-27T07:10:40.783Z,73.10
2019-04-27T07:13:12.453Z,72.90
2019-04-27T07:15:43.228Z,72.70
2019-04-27T07:18:14.162Z,72.60
2019-04-27T07:20:45.515Z,72.50
2019-04-27T07:23:16.465Z,72.50
2019-04-27T07:25:48.875Z,72.30
2019-04-27T07:28:19.768Z,72.20
2019-04-27T07:30:50.786Z,72.00
2019-04-27T07:33:21.883Z,72.50
2019-04-27T07:35:52.795Z,71.50
2019-04-27T07:38:23.821Z,71.10
2019-04-27T07:40:54.692Z,71.10
2019-04-27T07:43:33.711Z,70.80
2019-04-27T07:46:04.875Z,69.70
2019-04-27T07:48:36.602Z,69.50
2019-04-27T07:51:08.955Z,69.00
2019-04-27T07:53:40.104Z,68.50
2019-04-27T07:56:11.007Z,67.90
2019-04-27T07:58:41.884Z,66.80
2019-04-27T08:01:13.039Z,65.80
2019-04-27T08:03:43.986Z,62.70
2019-04-27T08:06:14.919Z,60.80
2019-04-27T08:08:45.936Z,56.00
2019-04-27T08:11:16.803Z,54.40
2019-04-27T08:13:49.012Z,52.00
2019-04-27T08:16:20.771Z,47.90
2019-04-27T08:18:52.671Z,45.10
2019-04-27T08:21:23.403Z,43.20
2019-04-27T08:23:54.288Z,41.90
2019-04-27T08:26:31.222Z,41.20
2019-04-27T08:29:24.187Z,39.00
2019-04-27T08:31:58.627Z,38.50
2019-04-27T08:34:32.604Z,37.40
2019-04-27T08:37:04.415Z,36.90
2019-04-27T08:39:35.804Z,35.40
2019-04-27T08:42:06.692Z,35.60
2019-04-27T08:44:39.328Z,35.60
2019-04-27T08:47:10.040Z,35.50
2019-04-27T08:49:40.940Z,35.70
2019-04-27T08:52:11.791Z,34.30
2019-04-27T08:54:42.727Z,32.60
2019-04-27T08:57:13.579Z,32.20
2019-04-27T08:59:44.449Z,30.80
2019-04-27T09:02:15.600Z,29.80
2019-04-27T09:04:46.499Z,28.80
2019-04-27T09:07:39.765Z,28.70
2019-04-27T09:10:18.733Z,28.50
2019-04-27T09:13:08.932Z,27.30
2019-04-27T09:15:44.197Z,27.20
2019-04-27T09:18:19.089Z,26.50
2019-04-27T09:20:53.011Z,26.20
2019-04-27T09:23:24.143Z,25.90
2019-04-27T09:25:55.184Z,26.50
2019-04-27T09:28:26.055Z,26.20
2019-04-27T09:30:58.256Z,25.60
2019-04-27T09:33:29.662Z,25.10
2019-04-27T09:39:26.409Z,26.40
2019-04-27T09:41:57.344Z,27.40
2019-04-27T09:44:28.132Z,28.40
2019-04-27T09:46:58.954Z,29.20
2019-04-27T09:49:29.867Z,29.90
2019-04-27T09:52:01.026Z,30.30
2019-04-27T09:54:32.019Z,31.00
2019-04-27T09:57:03.003Z,31.30
2019-04-27T09:59:33.921Z,31.90
2019-04-27T10:02:08.425Z,32.10
2019-04-27T10:04:38.798Z,32.10
2019-04-27T10:07:09.677Z,30.50
2019-04-27T10:09:40.902Z,29.00
2019-04-27T10:12:13.653Z,28.60
2019-04-27T10:14:45.421Z,29.30
2019-04-27T10:17:17.401Z,29.70
2019-04-27T10:19:48.261Z,30.20
2019-04-27T10:22:19.198Z,30.90
2019-04-27T10:24:50.297Z,31.70
2019-04-27T10:27:21.263Z,32.20
2019-04-27T10:29:52.289Z,32.10
2019-04-27T10:32:23.122Z,31.80
2019-04-27T10:34:54.360Z,31.80
2019-04-27T10:37:25.364Z,31.80
2019-04-27T10:39:56.351Z,31.90
2019-04-27T10:42:30.607Z,32.30
2019-04-27T10:45:01.765Z,32.50
2019-04-27T10:47:33.308Z,32.80
2019-04-27T10:50:05.827Z,33.20
2019-04-27T10:52:37.819Z,33.60
2019-04-27T10:55:08.887Z,34.60
2019-04-27T10:57:39.874Z,34.10
2019-04-27T11:00:20.424Z,34.60
2019-04-27T11:02:51.422Z,35.10
2019-04-27T11:05:31.072Z,35.60
2019-04-27T11:08:00.413Z,35.90
2019-04-27T11:10:31.378Z,36.40
2019-04-27T11:13:02.177Z,37.30
2019-04-27T11:15:33.147Z,37.80
2019-04-27T11:18:04.121Z,38.80
2019-04-27T11:20:36.255Z,38.80
2019-04-27T11:23:12.130Z,39.00
2019-04-27T11:25:40.733Z,38.50
2019-04-27T11:28:11.653Z,38.20
2019-04-27T11:30:42.495Z,37.90
2019-04-27T11:33:13.363Z,38.00
2019-04-27T11:36:18.103Z,38.10
2019-04-27T11:38:49.680Z,38.00
2019-04-27T11:41:20.695Z,38.00
2019-04-27T11:43:51.617Z,38.20
2019-04-27T11:46:22.717Z,38.40
2019-04-27T11:48:53.809Z,38.50
2019-04-27T11:51:26.592Z,39.10
2019-04-27T11:53:57.571Z,39.60
2019-04-27T11:56:28.540Z,40.00
2019-04-27T11:58:59.447Z,40.70
2019-04-27T12:01:30.369Z,40.80
2019-04-27T12:04:01.343Z,41.20
2019-04-27T12:06:32.311Z,42.10
2019-04-27T12:09:03.698Z,43.00
2019-04-27T12:11:36.302Z,43.70
2019-04-27T12:14:07.224Z,43.90
2019-04-27T12:16:38.182Z,43.80
2019-04-27T12:19:09.029Z,43.40
2019-04-27T12:21:42.823Z,42.70
2019-04-27T12:24:13.764Z,42.60
2019-04-27T12:26:51.381Z,42.60
2019-04-27T12:29:24.314Z,42.60
2019-04-27T12:31:56.256Z,42.80
2019-04-27T12:34:27.909Z,43.20
2019-04-27T12:36:59.191Z,43.30
2019-04-27T12:39:30.062Z,43.50
2019-04-27T12:42:01.059Z,43.30
2019-04-27T12:44:32.104Z,43.40
2019-04-27T12:47:02.976Z,43.90
2019-04-27T12:49:36.259Z,44.20
2019-04-27T12:52:07.757Z,44.40
2019-04-27T12:54:53.874Z,44.50
2019-04-27T12:57:58.816Z,44.60
2019-04-27T13:00:36.772Z,44.40
2019-04-27T13:03:07.721Z,44.30
2019-04-27T13:05:38.659Z,43.90
2019-04-27T13:08:09.507Z,43.90
2019-04-27T13:10:40.397Z,43.70
2019-04-27T13:13:11.506Z,43.50
2019-04-27T13:15:42.490Z,43.20
2019-04-27T13:18:13.477Z,43.00
2019-04-27T13:20:44.484Z,42.80
2019-04-27T13:23:15.411Z,42.40
2019-04-27T13:25:46.317Z,42.60
2019-04-27T13:28:18.683Z,42.90
2019-04-27T13:30:50.040Z,43.10
2019-04-27T13:33:21.263Z,43.10
2019-04-27T13:35:52.241Z,43.20
2019-04-27T13:38:23.144Z,43.00
2019-04-27T13:41:09.868Z,43.10
2019-04-27T13:43:40.917Z,43.20
2019-04-27T13:46:33.856Z,44.00
2019-04-27T13:49:32.762Z,43.30
2019-04-27T13:52:08.275Z,43.30
2019-04-27T13:54:46.003Z,43.10
2019-04-27T13:57:18.386Z,42.80
2019-04-27T13:59:49.373Z,43.30
2019-04-27T14:02:21.521Z,43.30
2019-04-27T14:04:52.878Z,43.70
2019-04-27T14:07:27.076Z,44.30
2019-04-27T14:10:00.041Z,44.90
2019-04-27T14:12:30.933Z,45.40
2019-04-27T14:15:01.802Z,45.90
2019-04-27T14:17:35.411Z,46.30
2019-04-27T14:20:07.872Z,46.80
2019-04-27T14:22:39.305Z,47.00
2019-04-27T14:25:19.564Z,47.20
2019-04-27T14:27:50.541Z,47.20
2019-04-27T14:30:22.709Z,47.10
2019-04-27T14:32:53.654Z,47.30
2019-04-27T14:35:24.608Z,47.70
2019-04-27T14:37:55.430Z,48.10
2019-04-27T14:40:26.416Z,48.40
2019-04-27T14:42:58.943Z,48.80
2019-04-27T14:45:30.074Z,49.20
2019-04-27T14:48:04.501Z,49.50
2019-04-27T14:50:35.677Z,49.80
2019-04-27T14:53:09.424Z,49.80
2019-04-27T14:55:41.263Z,49.80
2019-04-27T14:58:12.220Z,49.80
2019-04-27T15:00:43.131Z,49.90
2019-04-27T15:03:14.240Z,49.80
2019-04-27T15:05:45.183Z,49.80
2019-04-27T15:08:16.120Z,49.90
2019-04-27T15:10:46.974Z,50.10
2019-04-27T15:13:18.850Z,50.20
2019-04-27T15:15:50.811Z,50.50
2019-04-27T15:18:29.649Z,50.80
2019-04-27T15:21:02.657Z,50.90
2019-04-27T15:23:33.438Z,51.00
2019-04-27T15:26:06.992Z,51.20
2019-04-27T15:28:39.405Z,51.30
2019-04-27T15:31:39.043Z,51.40
2019-04-27T15:34:35.288Z,51.20
2019-04-27T15:37:28.101Z,51.20
2019-04-27T15:40:32.990Z,51.00
2019-04-27T15:43:13.232Z,51.00
2019-04-27T15:45:44.276Z,51.00
2019-04-27T15:48:17.902Z,51.10
2019-04-27T15:50:48.681Z,51.20
2019-04-27T15:53:19.812Z,51.40
2019-04-27T15:55:53.698Z,51.60
2019-04-27T15:58:28.224Z,51.80
2019-04-27T16:01:02.373Z,51.90
2019-04-27T16:03:32.100Z,52.10
2019-04-27T16:06:07.083Z,52.10
2019-04-27T16:08:38.185Z,52.10
2019-04-27T16:11:09.999Z,51.90
2019-04-27T16:13:40.816Z,52.20
2019-04-27T16:16:12.623Z,52.30
2019-04-27T16:18:43.553Z,52.50
2019-04-27T16:21:14.415Z,52.80
2019-04-27T16:23:45.350Z,53.00
2019-04-27T16:26:18.163Z,53.40
2019-04-27T16:28:53.429Z,53.70
2019-04-27T16:31:31.501Z,53.90
2019-04-27T16:34:02.754Z,54.00
2019-04-27T16:36:32.279Z,54.00
2019-04-27T16:39:09.950Z,53.90
2019-04-27T16:41:42.666Z,53.90
2019-04-27T16:44:14.093Z,53.90
2019-04-27T16:46:48.913Z,54.10
2019-04-27T16:49:23.800Z,54.20
2019-04-27T16:51:59.073Z,55.00
2019-04-27T16:54:30.340Z,54.00
2019-04-27T16:57:05.167Z,53.50
2019-04-27T16:59:43.281Z,53.50
2019-04-27T17:02:08.370Z,53.90
2019-04-27T17:04:39.431Z,54.20
2019-04-27T17:07:11.291Z,54.50
2019-04-27T17:09:46.380Z,54.60
2019-04-27T17:12:18.462Z,55.50
2019-04-27T17:15:10.597Z,55.00
2019-04-27T17:17:50.838Z,55.10
2019-04-27T17:20:21.341Z,55.30
2019-04-27T17:22:53.478Z,55.60
2019-04-27T17:25:24.422Z,55.70
2019-04-27T17:28:03.968Z,56.10
2019-04-27T17:30:37.908Z,56.30
2019-04-27T17:33:19.268Z,56.60
2019-04-27T17:35:49.298Z,57.00
2019-04-27T17:38:20.183Z,56.90
2019-04-27T17:40:51.866Z,57.00
2019-04-27T17:43:22.824Z,57.30
2019-04-27T17:45:53.747Z,57.50
2019-04-27T17:48:24.791Z,57.60
2019-04-27T17:50:55.985Z,57.60
2019-04-27T17:53:29.843Z,57.70
2019-04-27T17:56:05.630Z,57.80
2019-04-27T17:58:35.403Z,58.50
2019-04-27T18:01:13.901Z,58.00
2019-04-27T18:03:42.418Z,58.10
2019-04-27T18:06:13.405Z,58.10
2019-04-27T18:08:44.346Z,58.40
2019-04-27T18:11:15.211Z,58.20
2019-04-27T18:13:46.166Z,58.30
2019-04-27T18:16:18.989Z,58.50
2019-04-27T18:19:08.016Z,58.70
2019-04-27T18:21:33.848Z,58.80
2019-04-27T18:24:10.146Z,58.90
2019-04-27T18:26:51.656Z,59.00
2019-04-27T18:29:22.725Z,59.00
2019-04-27T18:31:54.625Z,59.10
2019-04-27T18:34:24.822Z,59.20
2019-04-27T18:36:56.034Z,59.30
2019-04-27T18:39:27.253Z,59.40
2019-04-27T18:41:58.501Z,59.60
2019-04-27T18:44:31.870Z,59.80
2019-04-27T18:47:02.386Z,60.00
2019-04-27T18:50:08.000Z,60.40
2019-04-27T18:52:47.655Z,60.50
2019-04-27T18:55:20.455Z,60.80
2019-04-27T18:57:50.893Z,61.20
2019-04-27T19:00:22.284Z,61.40
2019-04-27T19:02:53.235Z,61.60
2019-04-27T19:05:24.087Z,61.70
2019-04-27T19:07:55.051Z,61.70
2019-04-27T19:10:25.975Z,61.70
2019-04-27T19:12:58.495Z,61.80
2019-04-27T19:15:30.487Z,61.80
2019-04-27T19:18:01.461Z,61.90
2019-04-27T19:20:32.321Z,62.00
2019-04-27T19:23:03.303Z,62.20
2019-04-27T19:25:58.980Z,62.40
2019-04-27T19:28:43.269Z,62.60
2019-04-27T19:31:18.919Z,62.70
2019-04-27T19:33:49.802Z,63.00
2019-04-27T19:36:20.701Z,63.20
2019-04-27T19:38:51.573Z,63.40
2019-04-27T19:41:22.379Z,63.60
2019-04-27T19:43:53.344Z,63.80
2019-04-27T19:46:24.329Z,63.90
2019-04-27T19:48:55.152Z,64.00
2019-04-27T19:51:27.875Z,64.10
2019-04-27T19:53:58.613Z,64.30
2019-04-27T19:56:29.509Z,64.40
2019-04-27T19:59:02.719Z,64.50
2019-04-27T20:01:38.314Z,64.60
2019-04-27T20:04:24.739Z,64.90
2019-04-27T20:06:55.706Z,64.90
2019-04-27T20:09:32.957Z,65.00
2019-04-27T20:12:05.220Z,65.20
2019-04-27T20:14:53.765Z,65.40
2019-04-27T20:17:28.733Z,65.70
2019-04-27T20:20:00.041Z,65.70
2019-04-27T20:22:30.955Z,65.90
2019-04-27T20:25:02.167Z,66.00
2019-04-27T20:27:45.282Z,66.30
2019-04-27T20:30:08.649Z,66.40
2019-04-27T20:32:39.686Z,66.50
2019-04-27T20:35:11.755Z,66.40
2019-04-27T20:37:43.908Z,66.50
2019-04-27T20:40:14.902Z,66.50
2019-04-27T20:42:45.866Z,66.50
2019-04-27T20:45:16.892Z,66.60
2019-04-27T20:47:47.921Z,66.80
2019-04-27T20:50:18.940Z,66.90
2019-04-27T20:52:54.280Z,66.90
2019-04-27T20:55:26.162Z,67.20
2019-04-27T20:58:02.562Z,67.20
2019-04-27T21:00:29.674Z,67.30
2019-04-27T21:03:18.130Z,67.40
2019-04-27T21:06:15.342Z,67.40
2019-04-27T21:08:46.262Z,67.30
2019-04-27T21:11:17.210Z,67.10
2019-04-27T21:13:48.124Z,67.20
2019-04-27T21:16:21.001Z,67.00
2019-04-27T21:18:53.225Z,67.00
2019-04-27T21:21:24.443Z,67.00
2019-04-27T21:23:55.285Z,67.10
2019-04-27T21:26:26.155Z,67.20
2019-04-27T21:28:57.038Z,67.20
2019-04-27T21:31:28.476Z,67.20
2019-04-27T21:33:59.400Z,67.30
2019-04-27T21:36:31.310Z,67.30
2019-04-27T21:39:02.243Z,67.10
2019-04-27T21:41:34.689Z,67.10
2019-04-27T21:44:05.535Z,67.00
2019-04-27T21:46:36.795Z,67.00
2019-04-27T21:49:07.665Z,67.10
2019-04-27T21:51:57.415Z,67.20
2019-04-27T21:54:28.812Z,67.40
2019-04-27T21:56:59.606Z,67.50
2019-04-27T21:59:30.523Z,67.60
2019-04-27T22:02:02.462Z,67.90
2019-04-27T22:04:33.490Z,68.20
2019-04-27T22:07:04.525Z,68.30
2019-04-27T22:09:35.472Z,68.50
2019-04-27T22:12:06.419Z,68.70
2019-04-27T22:14:37.287Z,68.90
2019-04-27T22:17:08.171Z,69.10
2019-04-27T22:19:41.180Z,69.10
2019-04-27T22:22:21.180Z,69.10
2019-04-27T22:24:53.659Z,69.10
2019-04-27T22:27:25.618Z,69.10
2019-04-27T22:29:56.493Z,69.20
2019-04-27T22:32:27.397Z,69.30
2019-04-27T22:34:58.259Z,69.20
2019-04-27T22:37:29.237Z,69.30
2019-04-27T22:40:19.129Z,69.20
2019-04-27T22:43:07.395Z,69.00
2019-04-27T22:45:42.220Z,68.90
2019-04-27T22:48:11.714Z,68.60
2019-04-27T22:50:42.599Z,68.70
2019-04-27T22:53:13.507Z,68.50
2019-04-27T22:56:01.883Z,68.40
2019-04-27T22:58:33.815Z,68.30
2019-04-27T23:01:22.428Z,68.40
2019-04-27T23:03:54.969Z,68.40
2019-04-27T23:06:25.825Z,68.40
2019-04-27T23:08:56.591Z,68.50
2019-04-27T23:11:29.007Z,68.50
2019-04-27T23:14:01.058Z,68.70
2019-04-27T23:16:33.631Z,68.60
2019-04-27T23:19:04.390Z,68.60
2019-04-27T23:21:35.316Z,68.60
2019-04-27T23:24:06.247Z,68.70
2019-04-27T23:26:37.454Z,68.70
2019-04-27T23:29:13.570Z,68.70
2019-04-27T23:31:50.278Z,68.80
2019-04-27T23:34:21.628Z,68.80
2019-04-27T23:36:52.622Z,68.80
2019-04-27T23:39:24.449Z,68.70
2019-04-27T23:41:55.390Z,68.70
2019-04-27T23:44:26.334Z,68.80
2019-04-27T23:46:57.287Z,68.80
2019-04-27T23:49:28.210Z,68.70
2019-04-27T23:52:04.686Z,68.80
2019-04-27T23:54:35.907Z,68.80
2019-04-27T23:57:06.835Z,68.80
2019-04-27T23:59:37.807Z,68.90
